sensor_id;sensor_type;location;lat;lon;timestamp;temperature;humidity
25300;DHT22;13241;51.208;4.432;2023-08-24T00:02:02;20.70;99.90
25300;DHT22;13241;51.208;4.432;2023-08-24T00:04:29;20.70;99.90
25300;DHT22;13241;51.208;4.432;2023-08-24T00:06:56;20.60;99.90
25300;DHT22;13241;51.208;4.432;2023-08-24T00:09:24;20.70;99.90
25300;DHT22;13241;51.208;4.432;2023-08-24T00:11:52;20.60;99.90
25300;DHT22;13241;51.208;4.432;2023-08-24T00:14:19;20.60;99.90
25300;DHT22;13241;51.208;4.432;2023-08-24T00:16:47;20.60;99.90
25300;DHT22;13241;51.208;4.432;2023-08-24T00:19:14;20.60;99.90
25300;DHT22;13241;51.208;4.432;2023-08-24T00:21:41;20.50;99.90
25300;DHT22;13241;51.208;4.432;2023-08-24T00:24:08;20.60;99.90
25300;DHT22;13241;51.208;4.432;2023-08-24T00:26:35;20.50;99.90
25300;DHT22;13241;51.208;4.432;2023-08-24T00:29:02;20.60;99.90
25300;DHT22;13241;51.208;4.432;2023-08-24T00:31:30;20.50;99.90
25300;DHT22;13241;51.208;4.432;2023-08-24T00:33:58;20.50;99.90
25300;DHT22;13241;51.208;4.432;2023-08-24T00:36:26;20.40;99.90
25300;DHT22;13241;51.208;4.432;2023-08-24T00:38:53;20.40;99.90
25300;DHT22;13241;51.208;4.432;2023-08-24T00:41:20;20.50;99.90
25300;DHT22;13241;51.208;4.432;2023-08-24T00:43:48;20.50;99.90
25300;DHT22;13241;51.208;4.432;2023-08-24T00:46:17;20.50;99.90
25300;DHT22;13241;51.208;4.432;2023-08-24T00:48:49;20.50;99.90
25300;DHT22;13241;51.208;4.432;2023-08-24T00:51:16;20.50;99.90
25300;DHT22;13241;51.208;4.432;2023-08-24T00:53:43;20.50;99.90
25300;DHT22;13241;51.208;4.432;2023-08-24T00:56:12;20.50;99.90
25300;DHT22;13241;51.208;4.432;2023-08-24T00:58:40;20.50;99.90
25300;DHT22;13241;51.208;4.432;2023-08-24T01:01:07;20.50;99.90
25300;DHT22;13241;51.208;4.432;2023-08-24T01:03:34;20.50;99.90
25300;DHT22;13241;51.208;4.432;2023-08-24T01:06:02;20.60;99.90
25300;DHT22;13241;51.208;4.432;2023-08-24T01:08:29;20.60;99.90
25300;DHT22;13241;51.208;4.432;2023-08-24T01:11:05;20.60;99.90
25300;DHT22;13241;51.208;4.432;2023-08-24T01:13:53;20.60;99.90
25300;DHT22;13241;51.208;4.432;2023-08-24T01:16:28;20.60;99.90
25300;DHT22;13241;51.208;4.432;2023-08-24T01:18:57;20.60;99.90
25300;DHT22;13241;51.208;4.432;2023-08-24T01:21:26;20.60;99.90
25300;DHT22;13241;51.208;4.432;2023-08-24T01:24:04;20.70;99.90
25300;DHT22;13241;51.208;4.432;2023-08-24T01:26:38;20.70;99.90
25300;DHT22;13241;51.208;4.432;2023-08-24T01:29:05;20.70;99.90
25300;DHT22;13241;51.208;4.432;2023-08-24T01:31:34;20.80;99.90
25300;DHT22;13241;51.208;4.432;2023-08-24T01:34:01;20.70;99.90
25300;DHT22;13241;51.208;4.432;2023-08-24T01:36:28;20.70;99.90
25300;DHT22;13241;51.208;4.432;2023-08-24T01:39:06;20.80;99.90
25300;DHT22;13241;51.208;4.432;2023-08-24T01:41:37;20.80;99.90
25300;DHT22;13241;51.208;4.432;2023-08-24T01:44:06;20.80;99.90
25300;DHT22;13241;51.208;4.432;2023-08-24T01:46:36;20.80;99.90
25300;DHT22;13241;51.208;4.432;2023-08-24T01:49:06;20.90;99.90
25300;DHT22;13241;51.208;4.432;2023-08-24T01:51:35;20.90;99.90
25300;DHT22;13241;51.208;4.432;2023-08-24T01:54:02;20.90;99.90
25300;DHT22;13241;51.208;4.432;2023-08-24T01:56:30;20.80;99.90
25300;DHT22;13241;51.208;4.432;2023-08-24T01:58:57;20.80;99.90
25300;DHT22;13241;51.208;4.432;2023-08-24T02:01:24;20.80;99.90
25300;DHT22;13241;51.208;4.432;2023-08-24T02:03:52;20.80;99.90
25300;DHT22;13241;51.208;4.432;2023-08-24T02:06:19;20.80;99.90
25300;DHT22;13241;51.208;4.432;2023-08-24T02:08:47;20.80;99.90
25300;DHT22;13241;51.208;4.432;2023-08-24T02:11:16;20.80;99.90
25300;DHT22;13241;51.208;4.432;2023-08-24T02:13:43;20.80;99.90
25300;DHT22;13241;51.208;4.432;2023-08-24T02:16:10;20.70;99.90
25300;DHT22;13241;51.208;4.432;2023-08-24T02:18:42;20.70;99.90
25300;DHT22;13241;51.208;4.432;2023-08-24T02:21:12;20.50;99.90
25300;DHT22;13241;51.208;4.432;2023-08-24T02:23:41;20.50;99.90
25300;DHT22;13241;51.208;4.432;2023-08-24T02:26:08;20.40;99.90
25300;DHT22;13241;51.208;4.432;2023-08-24T02:28:37;20.40;99.90
25300;DHT22;13241;51.208;4.432;2023-08-24T02:31:05;20.30;99.90
25300;DHT22;13241;51.208;4.432;2023-08-24T02:33:33;20.30;99.90
25300;DHT22;13241;51.208;4.432;2023-08-24T02:36:00;20.30;99.90
25300;DHT22;13241;51.208;4.432;2023-08-24T02:38:28;20.30;99.90
25300;DHT22;13241;51.208;4.432;2023-08-24T02:41:05;20.20;99.90
25300;DHT22;13241;51.208;4.432;2023-08-24T02:43:34;20.20;99.90
25300;DHT22;13241;51.208;4.432;2023-08-24T02:46:02;20.20;99.90
25300;DHT22;13241;51.208;4.432;2023-08-24T02:48:31;20.20;99.90
25300;DHT22;13241;51.208;4.432;2023-08-24T02:51:02;20.20;99.90
25300;DHT22;13241;51.208;4.432;2023-08-24T02:53:31;20.20;99.90
25300;DHT22;13241;51.208;4.432;2023-08-24T02:56:00;20.30;99.90
25300;DHT22;13241;51.208;4.432;2023-08-24T02:58:27;20.30;99.90
25300;DHT22;13241;51.208;4.432;2023-08-24T03:00:54;20.20;99.90
25300;DHT22;13241;51.208;4.432;2023-08-24T03:03:22;20.20;99.90
25300;DHT22;13241;51.208;4.432;2023-08-24T03:06:00;20.20;99.90
25300;DHT22;13241;51.208;4.432;2023-08-24T03:08:32;20.20;99.90
25300;DHT22;13241;51.208;4.432;2023-08-24T03:11:01;20.10;99.90
25300;DHT22;13241;51.208;4.432;2023-08-24T03:13:29;20.20;99.90
25300;DHT22;13241;51.208;4.432;2023-08-24T03:15:57;20.20;99.90
25300;DHT22;13241;51.208;4.432;2023-08-24T03:18:29;20.10;99.90
25300;DHT22;13241;51.208;4.432;2023-08-24T03:20:57;20.10;99.90
25300;DHT22;13241;51.208;4.432;2023-08-24T03:23:25;20.10;99.90
25300;DHT22;13241;51.208;4.432;2023-08-24T03:25:52;20.10;99.90
25300;DHT22;13241;51.208;4.432;2023-08-24T03:28:19;20.10;99.90
25300;DHT22;13241;51.208;4.432;2023-08-24T03:30:48;20.00;99.90
25300;DHT22;13241;51.208;4.432;2023-08-24T03:33:16;19.90;99.90
25300;DHT22;13241;51.208;4.432;2023-08-24T03:35:43;19.90;99.90
25300;DHT22;13241;51.208;4.432;2023-08-24T03:38:10;19.90;99.90
25300;DHT22;13241;51.208;4.432;2023-08-24T03:40:37;19.90;99.90
25300;DHT22;13241;51.208;4.432;2023-08-24T03:43:04;19.90;99.90
25300;DHT22;13241;51.208;4.432;2023-08-24T03:45:31;19.90;99.90
25300;DHT22;13241;51.208;4.432;2023-08-24T03:47:59;19.90;99.90
25300;DHT22;13241;51.208;4.432;2023-08-24T03:50:26;19.80;99.90
25300;DHT22;13241;51.208;4.432;2023-08-24T03:52:54;19.80;99.90
25300;DHT22;13241;51.208;4.432;2023-08-24T03:55:21;19.70;99.90
25300;DHT22;13241;51.208;4.432;2023-08-24T03:57:50;19.70;99.90
25300;DHT22;13241;51.208;4.432;2023-08-24T04:00:18;19.70;99.90
25300;DHT22;13241;51.208;4.432;2023-08-24T04:02:45;19.70;99.90
25300;DHT22;13241;51.208;4.432;2023-08-24T04:05:20;19.60;99.90
25300;DHT22;13241;51.208;4.432;2023-08-24T04:07:48;19.60;99.90
25300;DHT22;13241;51.208;4.432;2023-08-24T04:10:15;19.60;99.90
25300;DHT22;13241;51.208;4.432;2023-08-24T04:12:42;19.60;99.90
25300;DHT22;13241;51.208;4.432;2023-08-24T04:15:10;19.60;99.90
25300;DHT22;13241;51.208;4.432;2023-08-24T04:17:38;19.60;99.90
25300;DHT22;13241;51.208;4.432;2023-08-24T04:20:09;19.60;99.90
25300;DHT22;13241;51.208;4.432;2023-08-24T04:22:37;19.60;99.90
25300;DHT22;13241;51.208;4.432;2023-08-24T04:25:04;19.60;99.90
25300;DHT22;13241;51.208;4.432;2023-08-24T04:27:33;19.70;99.90
25300;DHT22;13241;51.208;4.432;2023-08-24T04:30:00;19.50;99.90
25300;DHT22;13241;51.208;4.432;2023-08-24T04:32:27;19.50;99.90
25300;DHT22;13241;51.208;4.432;2023-08-24T04:34:55;19.50;99.90
25300;DHT22;13241;51.208;4.432;2023-08-24T04:37:22;19.50;99.90
25300;DHT22;13241;51.208;4.432;2023-08-24T04:39:49;19.50;99.90
25300;DHT22;13241;51.208;4.432;2023-08-24T04:42:16;19.50;99.90
25300;DHT22;13241;51.208;4.432;2023-08-24T04:44:43;19.50;99.90
25300;DHT22;13241;51.208;4.432;2023-08-24T04:47:10;19.60;99.90
25300;DHT22;13241;51.208;4.432;2023-08-24T04:49:38;19.50;99.90
25300;DHT22;13241;51.208;4.432;2023-08-24T04:52:05;19.50;99.90
25300;DHT22;13241;51.208;4.432;2023-08-24T04:54:33;19.60;99.90
25300;DHT22;13241;51.208;4.432;2023-08-24T04:57:00;19.60;99.90
25300;DHT22;13241;51.208;4.432;2023-08-24T04:59:27;19.60;99.90
25300;DHT22;13241;51.208;4.432;2023-08-24T05:01:54;19.50;99.90
25300;DHT22;13241;51.208;4.432;2023-08-24T05:04:21;19.60;99.90
25300;DHT22;13241;51.208;4.432;2023-08-24T05:06:48;19.60;99.90
25300;DHT22;13241;51.208;4.432;2023-08-24T05:09:15;19.60;99.90
25300;DHT22;13241;51.208;4.432;2023-08-24T05:11:43;19.70;99.90
25300;DHT22;13241;51.208;4.432;2023-08-24T05:14:11;19.70;99.90
25300;DHT22;13241;51.208;4.432;2023-08-24T05:16:38;19.80;99.90
25300;DHT22;13241;51.208;4.432;2023-08-24T05:19:05;19.80;99.90
25300;DHT22;13241;51.208;4.432;2023-08-24T05:21:32;19.80;99.90
25300;DHT22;13241;51.208;4.432;2023-08-24T05:23:59;19.80;99.90
25300;DHT22;13241;51.208;4.432;2023-08-24T05:26:26;19.90;99.90
25300;DHT22;13241;51.208;4.432;2023-08-24T05:28:53;19.90;99.90
25300;DHT22;13241;51.208;4.432;2023-08-24T05:31:20;19.80;99.90
25300;DHT22;13241;51.208;4.432;2023-08-24T05:33:48;19.80;99.90
25300;DHT22;13241;51.208;4.432;2023-08-24T05:36:15;19.80;99.90
25300;DHT22;13241;51.208;4.432;2023-08-24T05:38:42;19.80;99.90
25300;DHT22;13241;51.208;4.432;2023-08-24T05:41:29;19.90;99.90
25300;DHT22;13241;51.208;4.432;2023-08-24T05:43:56;19.90;99.90
25300;DHT22;13241;51.208;4.432;2023-08-24T05:46:24;19.90;99.90
25300;DHT22;13241;51.208;4.432;2023-08-24T05:48:51;19.90;99.90
25300;DHT22;13241;51.208;4.432;2023-08-24T05:51:20;20.00;99.90
25300;DHT22;13241;51.208;4.432;2023-08-24T05:53:47;20.00;99.90
25300;DHT22;13241;51.208;4.432;2023-08-24T05:56:14;20.10;99.90
25300;DHT22;13241;51.208;4.432;2023-08-24T05:58:48;20.10;99.90
25300;DHT22;13241;51.208;4.432;2023-08-24T06:01:16;20.20;99.90
25300;DHT22;13241;51.208;4.432;2023-08-24T06:03:43;20.30;99.90
25300;DHT22;13241;51.208;4.432;2023-08-24T06:06:10;20.30;99.90
25300;DHT22;13241;51.208;4.432;2023-08-24T06:08:38;20.40;99.90
25300;DHT22;13241;51.208;4.432;2023-08-24T06:11:05;20.40;99.90
25300;DHT22;13241;51.208;4.432;2023-08-24T06:13:32;20.50;99.90
25300;DHT22;13241;51.208;4.432;2023-08-24T06:15:59;20.50;99.90
25300;DHT22;13241;51.208;4.432;2023-08-24T06:18:27;20.60;99.90
25300;DHT22;13241;51.208;4.432;2023-08-24T06:20:54;20.70;99.90
25300;DHT22;13241;51.208;4.432;2023-08-24T06:23:21;20.80;99.90
25300;DHT22;13241;51.208;4.432;2023-08-24T06:25:48;20.90;99.90
25300;DHT22;13241;51.208;4.432;2023-08-24T06:28:15;20.90;99.90
25300;DHT22;13241;51.208;4.432;2023-08-24T06:30:43;20.90;99.90
25300;DHT22;13241;51.208;4.432;2023-08-24T06:33:10;21.10;99.90
25300;DHT22;13241;51.208;4.432;2023-08-24T06:35:40;21.20;99.90
25300;DHT22;13241;51.208;4.432;2023-08-24T06:38:07;21.20;99.90
25300;DHT22;13241;51.208;4.432;2023-08-24T06:40:34;21.30;99.90
25300;DHT22;13241;51.208;4.432;2023-08-24T06:43:01;21.50;99.90
25300;DHT22;13241;51.208;4.432;2023-08-24T06:45:28;21.60;99.90
25300;DHT22;13241;51.208;4.432;2023-08-24T06:47:56;21.70;99.90
25300;DHT22;13241;51.208;4.432;2023-08-24T06:50:23;21.90;99.90
25300;DHT22;13241;51.208;4.432;2023-08-24T06:52:50;22.10;99.90
25300;DHT22;13241;51.208;4.432;2023-08-24T06:55:17;22.30;99.90
25300;DHT22;13241;51.208;4.432;2023-08-24T06:57:48;22.50;99.90
25300;DHT22;13241;51.208;4.432;2023-08-24T07:00:17;22.60;99.90
25300;DHT22;13241;51.208;4.432;2023-08-24T07:02:44;22.70;99.90
25300;DHT22;13241;51.208;4.432;2023-08-24T07:05:11;22.80;99.90
25300;DHT22;13241;51.208;4.432;2023-08-24T07:07:39;22.90;99.90
25300;DHT22;13241;51.208;4.432;2023-08-24T07:10:09;23.00;99.90
25300;DHT22;13241;51.208;4.432;2023-08-24T07:12:36;23.10;99.90
25300;DHT22;13241;51.208;4.432;2023-08-24T07:15:05;23.30;99.90
25300;DHT22;13241;51.208;4.432;2023-08-24T07:17:32;23.50;99.90
25300;DHT22;13241;51.208;4.432;2023-08-24T07:19:59;23.60;99.90
25300;DHT22;13241;51.208;4.432;2023-08-24T07:22:26;23.70;99.90
25300;DHT22;13241;51.208;4.432;2023-08-24T07:24:53;23.80;99.90
25300;DHT22;13241;51.208;4.432;2023-08-24T07:27:20;23.90;99.90
25300;DHT22;13241;51.208;4.432;2023-08-24T07:29:48;24.00;99.90
25300;DHT22;13241;51.208;4.432;2023-08-24T07:32:15;24.00;99.90
25300;DHT22;13241;51.208;4.432;2023-08-24T07:34:42;24.00;99.90
25300;DHT22;13241;51.208;4.432;2023-08-24T07:37:09;24.00;99.90
25300;DHT22;13241;51.208;4.432;2023-08-24T07:39:37;23.90;99.90
25300;DHT22;13241;51.208;4.432;2023-08-24T07:42:04;23.90;99.90
25300;DHT22;13241;51.208;4.432;2023-08-24T07:44:31;23.90;99.90
25300;DHT22;13241;51.208;4.432;2023-08-24T07:46:58;24.00;99.90
25300;DHT22;13241;51.208;4.432;2023-08-24T07:49:25;24.00;99.90
25300;DHT22;13241;51.208;4.432;2023-08-24T07:51:53;24.00;99.90
25300;DHT22;13241;51.208;4.432;2023-08-24T07:54:20;24.00;99.90
25300;DHT22;13241;51.208;4.432;2023-08-24T07:56:47;24.00;99.90
25300;DHT22;13241;51.208;4.432;2023-08-24T07:59:14;23.90;99.90
25300;DHT22;13241;51.208;4.432;2023-08-24T08:01:41;24.00;99.90
25300;DHT22;13241;51.208;4.432;2023-08-24T08:04:08;24.00;99.90
25300;DHT22;13241;51.208;4.432;2023-08-24T08:06:35;24.00;99.90
25300;DHT22;13241;51.208;4.432;2023-08-24T08:09:02;24.00;99.90
25300;DHT22;13241;51.208;4.432;2023-08-24T08:11:29;24.00;99.90
25300;DHT22;13241;51.208;4.432;2023-08-24T08:13:57;24.00;99.90
25300;DHT22;13241;51.208;4.432;2023-08-24T08:16:24;24.10;99.90
25300;DHT22;13241;51.208;4.432;2023-08-24T08:18:51;24.10;99.90
25300;DHT22;13241;51.208;4.432;2023-08-24T08:21:18;24.10;99.90
25300;DHT22;13241;51.208;4.432;2023-08-24T08:23:48;24.20;99.90
25300;DHT22;13241;51.208;4.432;2023-08-24T08:26:16;24.20;99.90
25300;DHT22;13241;51.208;4.432;2023-08-24T08:28:43;24.20;99.90
25300;DHT22;13241;51.208;4.432;2023-08-24T08:31:11;24.20;99.90
25300;DHT22;13241;51.208;4.432;2023-08-24T08:33:38;24.10;99.90
25300;DHT22;13241;51.208;4.432;2023-08-24T08:36:05;24.10;99.90
25300;DHT22;13241;51.208;4.432;2023-08-24T08:38:32;24.10;99.90
25300;DHT22;13241;51.208;4.432;2023-08-24T08:41:03;24.10;99.90
25300;DHT22;13241;51.208;4.432;2023-08-24T08:43:31;24.10;99.90
25300;DHT22;13241;51.208;4.432;2023-08-24T08:45:59;24.20;99.90
25300;DHT22;13241;51.208;4.432;2023-08-24T08:48:29;24.20;99.90
25300;DHT22;13241;51.208;4.432;2023-08-24T08:50:57;24.10;99.90
25300;DHT22;13241;51.208;4.432;2023-08-24T08:53:25;24.10;99.90
25300;DHT22;13241;51.208;4.432;2023-08-24T08:55:53;24.10;99.90
25300;DHT22;13241;51.208;4.432;2023-08-24T08:58:21;24.10;99.90
25300;DHT22;13241;51.208;4.432;2023-08-24T09:00:49;24.10;99.90
25300;DHT22;13241;51.208;4.432;2023-08-24T09:03:19;24.10;99.90
25300;DHT22;13241;51.208;4.432;2023-08-24T09:05:46;24.10;99.90
25300;DHT22;13241;51.208;4.432;2023-08-24T09:08:17;24.10;99.90
25300;DHT22;13241;51.208;4.432;2023-08-24T09:10:44;24.20;99.90
25300;DHT22;13241;51.208;4.432;2023-08-24T09:13:12;24.30;99.90
25300;DHT22;13241;51.208;4.432;2023-08-24T09:15:39;24.30;99.90
25300;DHT22;13241;51.208;4.432;2023-08-24T09:18:07;24.40;99.90
25300;DHT22;13241;51.208;4.432;2023-08-24T09:20:35;24.40;99.90
25300;DHT22;13241;51.208;4.432;2023-08-24T09:23:03;24.30;99.90
25300;DHT22;13241;51.208;4.432;2023-08-24T09:25:30;24.30;99.90
25300;DHT22;13241;51.208;4.432;2023-08-24T09:28:01;24.30;99.90
25300;DHT22;13241;51.208;4.432;2023-08-24T09:30:31;24.30;99.90
25300;DHT22;13241;51.208;4.432;2023-08-24T09:33:03;24.10;99.90
25300;DHT22;13241;51.208;4.432;2023-08-24T09:35:35;24.10;99.90
25300;DHT22;13241;51.208;4.432;2023-08-24T09:38:22;24.00;99.90
25300;DHT22;13241;51.208;4.432;2023-08-24T09:40:51;24.00;99.90
25300;DHT22;13241;51.208;4.432;2023-08-24T09:43:18;24.00;99.90
25300;DHT22;13241;51.208;4.432;2023-08-24T09:48:17;23.80;99.90
25300;DHT22;13241;51.208;4.432;2023-08-24T09:50:45;23.70;99.90
25300;DHT22;13241;51.208;4.432;2023-08-24T09:53:17;23.70;99.90
25300;DHT22;13241;51.208;4.432;2023-08-24T09:55:58;23.60;99.90
25300;DHT22;13241;51.208;4.432;2023-08-24T09:58:26;23.60;99.90
25300;DHT22;13241;51.208;4.432;2023-08-24T10:00:55;23.60;99.90
25300;DHT22;13241;51.208;4.432;2023-08-24T10:03:26;23.50;99.90
25300;DHT22;13241;51.208;4.432;2023-08-24T10:05:55;23.40;99.90
25300;DHT22;13241;51.208;4.432;2023-08-24T10:08:36;23.40;99.90
25300;DHT22;13241;51.208;4.432;2023-08-24T10:11:08;23.30;99.90
25300;DHT22;13241;51.208;4.432;2023-08-24T10:13:57;23.30;99.90
25300;DHT22;13241;51.208;4.432;2023-08-24T10:16:26;23.20;99.90
25300;DHT22;13241;51.208;4.432;2023-08-24T10:18:54;23.20;99.90
25300;DHT22;13241;51.208;4.432;2023-08-24T10:21:23;23.20;99.90
25300;DHT22;13241;51.208;4.432;2023-08-24T10:23:56;23.20;99.90
25300;DHT22;13241;51.208;4.432;2023-08-24T10:26:26;23.20;99.90
25300;DHT22;13241;51.208;4.432;2023-08-24T10:28:54;23.20;99.90
25300;DHT22;13241;51.208;4.432;2023-08-24T10:31:23;23.10;99.90
25300;DHT22;13241;51.208;4.432;2023-08-24T10:33:51;23.10;99.90
25300;DHT22;13241;51.208;4.432;2023-08-24T10:36:18;23.00;99.90
25300;DHT22;13241;51.208;4.432;2023-08-24T10:38:46;23.00;99.90
25300;DHT22;13241;51.208;4.432;2023-08-24T10:41:13;23.00;99.90
25300;DHT22;13241;51.208;4.432;2023-08-24T10:43:48;23.00;99.90
25300;DHT22;13241;51.208;4.432;2023-08-24T10:46:16;23.00;99.90
25300;DHT22;13241;51.208;4.432;2023-08-24T10:54:00;23.20;99.90
25300;DHT22;13241;51.208;4.432;2023-08-24T10:56:34;23.20;99.90
25300;DHT22;13241;51.208;4.432;2023-08-24T10:59:34;23.30;99.90
25300;DHT22;13241;51.208;4.432;2023-08-24T11:02:19;23.30;99.90
25300;DHT22;13241;51.208;4.432;2023-08-24T11:05:21;23.40;99.90
25300;DHT22;13241;51.208;4.432;2023-08-24T11:07:54;23.60;99.90
25300;DHT22;13241;51.208;4.432;2023-08-24T11:10:25;23.80;99.90
25300;DHT22;13241;51.208;4.432;2023-08-24T11:13:05;24.00;99.90
25300;DHT22;13241;51.208;4.432;2023-08-24T11:15:36;24.50;99.90
25300;DHT22;13241;51.208;4.432;2023-08-24T11:20:54;25.10;99.90
25300;DHT22;13241;51.208;4.432;2023-08-24T11:23:23;25.40;99.90
25300;DHT22;13241;51.208;4.432;2023-08-24T11:25:52;25.60;99.90
25300;DHT22;13241;51.208;4.432;2023-08-24T11:28:25;25.80;99.90
25300;DHT22;13241;51.208;4.432;2023-08-24T11:30:53;25.70;99.90
25300;DHT22;13241;51.208;4.432;2023-08-24T11:33:31;25.70;99.90
25300;DHT22;13241;51.208;4.432;2023-08-24T11:36:00;25.70;99.90
25300;DHT22;13241;51.208;4.432;2023-08-24T11:38:38;25.70;99.90
25300;DHT22;13241;51.208;4.432;2023-08-24T11:41:14;25.80;99.90
25300;DHT22;13241;51.208;4.432;2023-08-24T11:43:46;25.70;99.90
25300;DHT22;13241;51.208;4.432;2023-08-24T11:46:15;25.50;99.90
25300;DHT22;13241;51.208;4.432;2023-08-24T11:48:44;25.50;99.90
25300;DHT22;13241;51.208;4.432;2023-08-24T11:51:12;25.60;99.90
25300;DHT22;13241;51.208;4.432;2023-08-24T11:53:42;25.80;99.90
25300;DHT22;13241;51.208;4.432;2023-08-24T11:56:14;26.10;99.90
25300;DHT22;13241;51.208;4.432;2023-08-24T11:58:48;26.30;99.90
25300;DHT22;13241;51.208;4.432;2023-08-24T12:01:17;26.50;99.90
25300;DHT22;13241;51.208;4.432;2023-08-24T12:03:44;26.50;99.90
25300;DHT22;13241;51.208;4.432;2023-08-24T12:06:13;26.50;99.90
25300;DHT22;13241;51.208;4.432;2023-08-24T12:08:42;26.30;99.90
25300;DHT22;13241;51.208;4.432;2023-08-24T12:11:17;26.10;99.90
25300;DHT22;13241;51.208;4.432;2023-08-24T12:13:51;26.10;99.90
25300;DHT22;13241;51.208;4.432;2023-08-24T12:16:20;26.10;99.90
25300;DHT22;13241;51.208;4.432;2023-08-24T12:18:53;26.00;99.90
25300;DHT22;13241;51.208;4.432;2023-08-24T12:21:22;25.90;99.90
25300;DHT22;13241;51.208;4.432;2023-08-24T12:24:03;25.80;99.90
25300;DHT22;13241;51.208;4.432;2023-08-24T12:26:36;25.70;99.90
25300;DHT22;13241;51.208;4.432;2023-08-24T12:29:05;25.60;99.90
25300;DHT22;13241;51.208;4.432;2023-08-24T12:31:33;25.60;99.90
25300;DHT22;13241;51.208;4.432;2023-08-24T12:34:07;25.60;99.90
25300;DHT22;13241;51.208;4.432;2023-08-24T12:36:38;25.60;99.90
25300;DHT22;13241;51.208;4.432;2023-08-24T12:39:06;25.50;99.90
25300;DHT22;13241;51.208;4.432;2023-08-24T12:41:34;25.50;99.90
25300;DHT22;13241;51.208;4.432;2023-08-24T12:44:01;25.50;99.90
25300;DHT22;13241;51.208;4.432;2023-08-24T12:46:35;25.40;99.90
25300;DHT22;13241;51.208;4.432;2023-08-24T12:49:03;25.30;99.90
25300;DHT22;13241;51.208;4.432;2023-08-24T12:51:31;25.30;99.90
25300;DHT22;13241;51.208;4.432;2023-08-24T12:53:58;25.10;99.90
25300;DHT22;13241;51.208;4.432;2023-08-24T12:56:25;25.00;99.90
25300;DHT22;13241;51.208;4.432;2023-08-24T12:58:52;24.90;99.90
25300;DHT22;13241;51.208;4.432;2023-08-24T13:01:19;24.80;99.90
25300;DHT22;13241;51.208;4.432;2023-08-24T13:03:46;24.70;99.90
25300;DHT22;13241;51.208;4.432;2023-08-24T13:06:13;24.70;99.90
25300;DHT22;13241;51.208;4.432;2023-08-24T13:08:52;24.60;99.90
25300;DHT22;13241;51.208;4.432;2023-08-24T13:11:20;24.50;99.90
25300;DHT22;13241;51.208;4.432;2023-08-24T13:13:47;24.50;99.90
25300;DHT22;13241;51.208;4.432;2023-08-24T13:16:14;24.50;99.90
25300;DHT22;13241;51.208;4.432;2023-08-24T13:18:42;24.50;99.90
25300;DHT22;13241;51.208;4.432;2023-08-24T13:21:10;24.50;99.90
25300;DHT22;13241;51.208;4.432;2023-08-24T13:23:37;24.40;99.90
25300;DHT22;13241;51.208;4.432;2023-08-24T13:26:04;24.40;99.90
25300;DHT22;13241;51.208;4.432;2023-08-24T13:28:31;24.40;99.90
25300;DHT22;13241;51.208;4.432;2023-08-24T13:30:58;24.50;99.90
25300;DHT22;13241;51.208;4.432;2023-08-24T13:33:25;24.50;99.90
25300;DHT22;13241;51.208;4.432;2023-08-24T13:35:52;24.50;99.90
25300;DHT22;13241;51.208;4.432;2023-08-24T13:38:19;24.60;99.90
25300;DHT22;13241;51.208;4.432;2023-08-24T13:40:46;24.60;99.90
25300;DHT22;13241;51.208;4.432;2023-08-24T13:43:16;24.50;99.90
25300;DHT22;13241;51.208;4.432;2023-08-24T13:45:43;24.40;99.90
25300;DHT22;13241;51.208;4.432;2023-08-24T13:48:10;24.40;99.90
25300;DHT22;13241;51.208;4.432;2023-08-24T13:50:37;24.50;99.90
25300;DHT22;13241;51.208;4.432;2023-08-24T13:53:04;24.50;99.90
25300;DHT22;13241;51.208;4.432;2023-08-24T13:55:32;24.50;99.90
25300;DHT22;13241;51.208;4.432;2023-08-24T13:57:59;24.60;99.90
25300;DHT22;13241;51.208;4.432;2023-08-24T14:00:26;24.90;99.90
25300;DHT22;13241;51.208;4.432;2023-08-24T14:02:53;25.00;99.90
25300;DHT22;13241;51.208;4.432;2023-08-24T14:05:21;25.00;99.90
25300;DHT22;13241;51.208;4.432;2023-08-24T14:07:48;25.00;99.90
25300;DHT22;13241;51.208;4.432;2023-08-24T14:10:15;25.00;99.90
25300;DHT22;13241;51.208;4.432;2023-08-24T14:12:42;25.00;99.90
25300;DHT22;13241;51.208;4.432;2023-08-24T14:15:10;25.20;99.90
25300;DHT22;13241;51.208;4.432;2023-08-24T14:17:38;25.30;99.90
25300;DHT22;13241;51.208;4.432;2023-08-24T14:20:06;25.40;99.90
25300;DHT22;13241;51.208;4.432;2023-08-24T14:22:36;25.60;99.90
25300;DHT22;13241;51.208;4.432;2023-08-24T14:25:02;25.70;99.90
25300;DHT22;13241;51.208;4.432;2023-08-24T14:27:29;25.80;99.90
25300;DHT22;13241;51.208;4.432;2023-08-24T14:29:56;25.80;99.90
25300;DHT22;13241;51.208;4.432;2023-08-24T14:32:23;25.70;99.90
25300;DHT22;13241;51.208;4.432;2023-08-24T14:34:50;25.60;99.90
25300;DHT22;13241;51.208;4.432;2023-08-24T14:37:17;25.50;99.90
25300;DHT22;13241;51.208;4.432;2023-08-24T14:39:44;25.50;99.90
25300;DHT22;13241;51.208;4.432;2023-08-24T14:42:11;25.60;99.90
25300;DHT22;13241;51.208;4.432;2023-08-24T14:44:38;25.60;99.90
25300;DHT22;13241;51.208;4.432;2023-08-24T14:47:05;25.60;99.90
25300;DHT22;13241;51.208;4.432;2023-08-24T14:49:32;25.40;99.90
25300;DHT22;13241;51.208;4.432;2023-08-24T14:52:00;25.40;99.90
25300;DHT22;13241;51.208;4.432;2023-08-24T14:54:26;25.20;99.90
25300;DHT22;13241;51.208;4.432;2023-08-24T14:56:53;25.00;99.90
25300;DHT22;13241;51.208;4.432;2023-08-24T14:59:22;25.00;99.90
25300;DHT22;13241;51.208;4.432;2023-08-24T15:01:49;24.90;99.90
25300;DHT22;13241;51.208;4.432;2023-08-24T15:04:16;24.80;99.90
25300;DHT22;13241;51.208;4.432;2023-08-24T15:06:43;24.90;99.90
25300;DHT22;13241;51.208;4.432;2023-08-24T15:09:10;24.90;99.90
25300;DHT22;13241;51.208;4.432;2023-08-24T15:11:38;25.10;99.90
25300;DHT22;13241;51.208;4.432;2023-08-24T15:14:05;25.10;99.90
25300;DHT22;13241;51.208;4.432;2023-08-24T15:16:32;25.30;99.90
25300;DHT22;13241;51.208;4.432;2023-08-24T15:18:59;25.80;99.90
25300;DHT22;13241;51.208;4.432;2023-08-24T15:21:26;26.10;99.90
25300;DHT22;13241;51.208;4.432;2023-08-24T15:23:54;26.40;99.90
25300;DHT22;13241;51.208;4.432;2023-08-24T15:26:21;26.60;99.90
25300;DHT22;13241;51.208;4.432;2023-08-24T15:29:14;26.60;99.90
25300;DHT22;13241;51.208;4.432;2023-08-24T15:31:45;26.40;99.90
25300;DHT22;13241;51.208;4.432;2023-08-24T15:34:12;26.40;99.90
25300;DHT22;13241;51.208;4.432;2023-08-24T15:36:39;26.30;99.90
25300;DHT22;13241;51.208;4.432;2023-08-24T15:39:06;26.30;99.90
25300;DHT22;13241;51.208;4.432;2023-08-24T15:41:33;26.30;99.90
25300;DHT22;13241;51.208;4.432;2023-08-24T15:44:00;26.40;99.90
25300;DHT22;13241;51.208;4.432;2023-08-24T15:46:28;26.50;99.90
25300;DHT22;13241;51.208;4.432;2023-08-24T15:48:55;26.60;99.90
25300;DHT22;13241;51.208;4.432;2023-08-24T15:51:23;26.60;99.90